sensor_id;sensor_type;location;lat;lon;timestamp;temperature;humidity
44537;DHT22;30245;51.966;6.292;2023-02-04T00:01:44;13.90;56.90
44537;DHT22;30245;51.966;6.292;2023-02-04T00:04:11;13.90;56.90
44537;DHT22;30245;51.966;6.292;2023-02-04T00:06:37;13.90;56.90
44537;DHT22;30245;51.966;6.292;2023-02-04T00:09:03;13.90;56.90
44537;DHT22;30245;51.966;6.292;2023-02-04T00:11:28;13.80;56.80
44537;DHT22;30245;51.966;6.292;2023-02-04T00:13:54;13.90;56.90
44537;DHT22;30245;51.966;6.292;2023-02-04T00:16:20;13.80;56.90
44537;DHT22;30245;51.966;6.292;2023-02-04T00:18:45;13.80;56.90
44537;DHT22;30245;51.966;6.292;2023-02-04T00:21:11;13.70;57.00
44537;DHT22;30245;51.966;6.292;2023-02-04T00:23:36;13.70;57.00
44537;DHT22;30245;51.966;6.292;2023-02-04T00:26:02;13.70;57.00
44537;DHT22;30245;51.966;6.292;2023-02-04T00:28:27;13.70;57.00
44537;DHT22;30245;51.966;6.292;2023-02-04T00:30:53;13.70;57.00
44537;DHT22;30245;51.966;6.292;2023-02-04T00:33:18;13.70;57.00
44537;DHT22;30245;51.966;6.292;2023-02-04T00:35:44;13.60;57.00
44537;DHT22;30245;51.966;6.292;2023-02-04T00:38:10;13.60;57.10
44537;DHT22;30245;51.966;6.292;2023-02-04T00:40:36;13.60;57.20
44537;DHT22;30245;51.966;6.292;2023-02-04T00:43:01;13.60;57.10
44537;DHT22;30245;51.966;6.292;2023-02-04T00:45:27;13.60;57.10
44537;DHT22;30245;51.966;6.292;2023-02-04T00:47:53;13.60;57.10
44537;DHT22;30245;51.966;6.292;2023-02-04T00:50:18;13.60;57.10
44537;DHT22;30245;51.966;6.292;2023-02-04T00:52:44;13.60;57.10
44537;DHT22;30245;51.966;6.292;2023-02-04T00:55:09;13.60;57.10
44537;DHT22;30245;51.966;6.292;2023-02-04T00:57:37;13.60;57.00
44537;DHT22;30245;51.966;6.292;2023-02-04T01:00:03;13.60;57.10
44537;DHT22;30245;51.966;6.292;2023-02-04T01:02:29;13.60;57.10
44537;DHT22;30245;51.966;6.292;2023-02-04T01:04:54;13.60;57.00
44537;DHT22;30245;51.966;6.292;2023-02-04T01:07:20;13.60;57.00
44537;DHT22;30245;51.966;6.292;2023-02-04T01:09:46;13.60;57.00
44537;DHT22;30245;51.966;6.292;2023-02-04T01:12:11;13.60;57.00
44537;DHT22;30245;51.966;6.292;2023-02-04T01:14:37;13.60;57.00
44537;DHT22;30245;51.966;6.292;2023-02-04T01:17:03;13.60;57.00
44537;DHT22;30245;51.966;6.292;2023-02-04T01:19:28;13.60;57.00
44537;DHT22;30245;51.966;6.292;2023-02-04T01:21:54;13.60;57.00
44537;DHT22;30245;51.966;6.292;2023-02-04T01:24:19;13.60;57.00
44537;DHT22;30245;51.966;6.292;2023-02-04T01:26:45;13.60;56.90
44537;DHT22;30245;51.966;6.292;2023-02-04T01:29:10;13.60;56.90
44537;DHT22;30245;51.966;6.292;2023-02-04T01:31:36;13.60;56.90
44537;DHT22;30245;51.966;6.292;2023-02-04T01:34:02;13.60;56.90
44537;DHT22;30245;51.966;6.292;2023-02-04T01:36:27;13.60;56.90
44537;DHT22;30245;51.966;6.292;2023-02-04T01:38:53;13.60;56.90
44537;DHT22;30245;51.966;6.292;2023-02-04T01:41:19;13.60;56.90
44537;DHT22;30245;51.966;6.292;2023-02-04T01:43:45;13.70;56.80
44537;DHT22;30245;51.966;6.292;2023-02-04T01:46:11;13.70;56.70
44537;DHT22;30245;51.966;6.292;2023-02-04T01:48:37;13.70;56.70
44537;DHT22;30245;51.966;6.292;2023-02-04T01:51:08;13.70;56.70
44537;DHT22;30245;51.966;6.292;2023-02-04T01:53:36;13.70;56.70
44537;DHT22;30245;51.966;6.292;2023-02-04T01:56:13;13.70;56.80
44537;DHT22;30245;51.966;6.292;2023-02-04T01:58:39;13.60;56.80
44537;DHT22;30245;51.966;6.292;2023-02-04T02:01:10;13.60;56.80
44537;DHT22;30245;51.966;6.292;2023-02-04T02:03:37;13.60;56.80
44537;DHT22;30245;51.966;6.292;2023-02-04T02:06:03;13.50;56.90
44537;DHT22;30245;51.966;6.292;2023-02-04T02:08:28;13.50;57.10
44537;DHT22;30245;51.966;6.292;2023-02-04T02:10:54;13.50;57.10
44537;DHT22;30245;51.966;6.292;2023-02-04T02:13:19;13.40;57.10
44537;DHT22;30245;51.966;6.292;2023-02-04T02:15:46;13.40;57.10
44537;DHT22;30245;51.966;6.292;2023-02-04T02:18:12;13.40;57.20
44537;DHT22;30245;51.966;6.292;2023-02-04T02:20:38;13.40;57.20
44537;DHT22;30245;51.966;6.292;2023-02-04T02:25:44;13.30;57.40
44537;DHT22;30245;51.966;6.292;2023-02-04T02:28:13;13.20;57.50
44537;DHT22;30245;51.966;6.292;2023-02-04T02:30:40;13.20;57.50
44537;DHT22;30245;51.966;6.292;2023-02-04T02:33:06;13.20;57.50
44537;DHT22;30245;51.966;6.292;2023-02-04T02:35:32;13.20;57.60
44537;DHT22;30245;51.966;6.292;2023-02-04T02:37:58;13.10;57.60
44537;DHT22;30245;51.966;6.292;2023-02-04T02:40:24;13.10;57.70
44537;DHT22;30245;51.966;6.292;2023-02-04T02:42:51;13.10;57.70
44537;DHT22;30245;51.966;6.292;2023-02-04T02:45:25;13.00;57.80
44537;DHT22;30245;51.966;6.292;2023-02-04T02:47:51;13.00;57.80
44537;DHT22;30245;51.966;6.292;2023-02-04T02:50:21;12.90;57.90
44537;DHT22;30245;51.966;6.292;2023-02-04T02:52:48;12.90;57.90
44537;DHT22;30245;51.966;6.292;2023-02-04T02:55:16;12.90;57.90
44537;DHT22;30245;51.966;6.292;2023-02-04T02:57:43;12.90;57.90
44537;DHT22;30245;51.966;6.292;2023-02-04T03:00:15;13.00;57.80
44537;DHT22;30245;51.966;6.292;2023-02-04T03:02:41;12.90;57.70
44537;DHT22;30245;51.966;6.292;2023-02-04T03:05:07;12.90;57.70
44537;DHT22;30245;51.966;6.292;2023-02-04T03:07:33;13.00;57.70
44537;DHT22;30245;51.966;6.292;2023-02-04T03:09:59;12.90;57.70
44537;DHT22;30245;51.966;6.292;2023-02-04T03:12:24;12.90;57.70
44537;DHT22;30245;51.966;6.292;2023-02-04T03:14:50;12.80;57.70
44537;DHT22;30245;51.966;6.292;2023-02-04T03:17:16;12.80;57.80
44537;DHT22;30245;51.966;6.292;2023-02-04T03:19:42;12.70;57.90
44537;DHT22;30245;51.966;6.292;2023-02-04T03:22:08;12.70;58.00
44537;DHT22;30245;51.966;6.292;2023-02-04T03:24:34;12.70;58.00
44537;DHT22;30245;51.966;6.292;2023-02-04T03:27:00;12.80;58.00
44537;DHT22;30245;51.966;6.292;2023-02-04T03:29:26;12.80;57.90
44537;DHT22;30245;51.966;6.292;2023-02-04T03:31:52;12.80;57.80
44537;DHT22;30245;51.966;6.292;2023-02-04T03:34:20;12.90;57.80
44537;DHT22;30245;51.966;6.292;2023-02-04T03:36:46;12.90;57.70
44537;DHT22;30245;51.966;6.292;2023-02-04T03:39:11;12.90;57.70
44537;DHT22;30245;51.966;6.292;2023-02-04T03:41:37;12.90;57.70
44537;DHT22;30245;51.966;6.292;2023-02-04T03:44:03;12.90;57.70
44537;DHT22;30245;51.966;6.292;2023-02-04T03:46:28;12.80;57.80
44537;DHT22;30245;51.966;6.292;2023-02-04T03:48:54;12.80;58.00
44537;DHT22;30245;51.966;6.292;2023-02-04T03:51:19;12.80;57.90
44537;DHT22;30245;51.966;6.292;2023-02-04T03:53:45;12.80;57.90
44537;DHT22;30245;51.966;6.292;2023-02-04T03:56:11;12.90;57.90
44537;DHT22;30245;51.966;6.292;2023-02-04T03:58:36;12.80;57.70
44537;DHT22;30245;51.966;6.292;2023-02-04T04:01:02;12.90;57.70
44537;DHT22;30245;51.966;6.292;2023-02-04T04:03:27;12.90;57.80
44537;DHT22;30245;51.966;6.292;2023-02-04T04:05:53;12.80;57.80
44537;DHT22;30245;51.966;6.292;2023-02-04T04:08:19;12.80;57.90
44537;DHT22;30245;51.966;6.292;2023-02-04T04:10:44;12.70;58.00
44537;DHT22;30245;51.966;6.292;2023-02-04T04:13:10;12.70;58.20
44537;DHT22;30245;51.966;6.292;2023-02-04T04:15:35;12.70;58.20
44537;DHT22;30245;51.966;6.292;2023-02-04T04:18:01;12.70;58.30
44537;DHT22;30245;51.966;6.292;2023-02-04T04:20:29;12.60;58.40
44537;DHT22;30245;51.966;6.292;2023-02-04T04:22:54;12.60;58.60
44537;DHT22;30245;51.966;6.292;2023-02-04T04:25:20;12.60;58.60
44537;DHT22;30245;51.966;6.292;2023-02-04T04:27:45;12.60;58.60
44537;DHT22;30245;51.966;6.292;2023-02-04T04:30:11;12.60;58.60
44537;DHT22;30245;51.966;6.292;2023-02-04T04:32:37;12.60;58.60
44537;DHT22;30245;51.966;6.292;2023-02-04T04:35:02;12.70;58.60
44537;DHT22;30245;51.966;6.292;2023-02-04T04:37:28;12.60;58.60
44537;DHT22;30245;51.966;6.292;2023-02-04T04:39:54;12.70;58.60
44537;DHT22;30245;51.966;6.292;2023-02-04T04:42:19;12.70;58.60
44537;DHT22;30245;51.966;6.292;2023-02-04T04:44:45;12.70;58.60
44537;DHT22;30245;51.966;6.292;2023-02-04T04:47:11;12.70;58.70
44537;DHT22;30245;51.966;6.292;2023-02-04T04:49:36;12.60;58.80
44537;DHT22;30245;51.966;6.292;2023-02-04T04:52:02;12.60;58.90
44537;DHT22;30245;51.966;6.292;2023-02-04T04:54:27;12.60;58.90
44537;DHT22;30245;51.966;6.292;2023-02-04T04:56:53;12.60;58.90
44537;DHT22;30245;51.966;6.292;2023-02-04T04:59:18;12.60;58.90
44537;DHT22;30245;51.966;6.292;2023-02-04T05:01:44;12.60;58.90
44537;DHT22;30245;51.966;6.292;2023-02-04T05:04:09;12.60;58.90
44537;DHT22;30245;51.966;6.292;2023-02-04T05:06:35;12.60;59.00
44537;DHT22;30245;51.966;6.292;2023-02-04T05:09:01;12.60;59.00
44537;DHT22;30245;51.966;6.292;2023-02-04T05:11:26;12.60;59.10
44537;DHT22;30245;51.966;6.292;2023-02-04T05:13:52;12.60;59.10
44537;DHT22;30245;51.966;6.292;2023-02-04T05:16:17;12.60;59.00
44537;DHT22;30245;51.966;6.292;2023-02-04T05:18:43;12.60;59.00
44537;DHT22;30245;51.966;6.292;2023-02-04T05:21:08;12.60;58.90
44537;DHT22;30245;51.966;6.292;2023-02-04T05:23:34;12.70;58.90
44537;DHT22;30245;51.966;6.292;2023-02-04T05:25:59;12.70;58.90
44537;DHT22;30245;51.966;6.292;2023-02-04T05:28:25;12.60;58.90
44537;DHT22;30245;51.966;6.292;2023-02-04T05:30:51;12.60;59.00
44537;DHT22;30245;51.966;6.292;2023-02-04T05:33:16;12.60;59.00
44537;DHT22;30245;51.966;6.292;2023-02-04T05:35:42;12.60;59.00
44537;DHT22;30245;51.966;6.292;2023-02-04T05:38:07;12.60;59.00
44537;DHT22;30245;51.966;6.292;2023-02-04T05:40:33;12.60;58.90
44537;DHT22;30245;51.966;6.292;2023-02-04T05:42:59;12.60;58.90
44537;DHT22;30245;51.966;6.292;2023-02-04T05:45:25;12.60;58.90
44537;DHT22;30245;51.966;6.292;2023-02-04T05:47:51;12.60;58.90
44537;DHT22;30245;51.966;6.292;2023-02-04T05:50:17;12.60;58.90
44537;DHT22;30245;51.966;6.292;2023-02-04T05:52:42;12.60;59.00
44537;DHT22;30245;51.966;6.292;2023-02-04T05:55:11;12.60;59.10
44537;DHT22;30245;51.966;6.292;2023-02-04T05:57:37;12.50;59.10
44537;DHT22;30245;51.966;6.292;2023-02-04T06:00:04;12.50;59.30
44537;DHT22;30245;51.966;6.292;2023-02-04T06:02:30;12.40;59.40
44537;DHT22;30245;51.966;6.292;2023-02-04T06:04:56;12.40;60.10
44537;DHT22;30245;51.966;6.292;2023-02-04T06:07:21;12.40;59.60
44537;DHT22;30245;51.966;6.292;2023-02-04T06:09:47;12.40;59.70
44537;DHT22;30245;51.966;6.292;2023-02-04T06:12:12;12.40;59.70
44537;DHT22;30245;51.966;6.292;2023-02-04T06:14:38;12.40;59.70
44537;DHT22;30245;51.966;6.292;2023-02-04T06:17:03;12.40;59.70
44537;DHT22;30245;51.966;6.292;2023-02-04T06:19:29;12.30;59.70
44537;DHT22;30245;51.966;6.292;2023-02-04T06:21:55;12.30;59.80
44537;DHT22;30245;51.966;6.292;2023-02-04T06:24:20;12.40;59.90
44537;DHT22;30245;51.966;6.292;2023-02-04T06:26:46;12.30;59.90
44537;DHT22;30245;51.966;6.292;2023-02-04T06:29:11;12.40;59.90
44537;DHT22;30245;51.966;6.292;2023-02-04T06:31:37;12.30;59.80
44537;DHT22;30245;51.966;6.292;2023-02-04T06:34:04;12.30;59.90
44537;DHT22;30245;51.966;6.292;2023-02-04T06:36:29;12.30;60.00
44537;DHT22;30245;51.966;6.292;2023-02-04T06:38:55;12.30;60.10
44537;DHT22;30245;51.966;6.292;2023-02-04T06:41:21;12.30;60.10
44537;DHT22;30245;51.966;6.292;2023-02-04T06:43:47;12.30;60.20
44537;DHT22;30245;51.966;6.292;2023-02-04T06:46:12;12.30;60.10
44537;DHT22;30245;51.966;6.292;2023-02-04T06:48:38;12.30;60.10
44537;DHT22;30245;51.966;6.292;2023-02-04T06:51:04;12.30;60.00
44537;DHT22;30245;51.966;6.292;2023-02-04T06:53:29;12.40;60.00
44537;DHT22;30245;51.966;6.292;2023-02-04T06:55:55;12.30;60.00
44537;DHT22;30245;51.966;6.292;2023-02-04T06:58:20;12.30;60.10
44537;DHT22;30245;51.966;6.292;2023-02-04T07:00:46;12.30;60.20
44537;DHT22;30245;51.966;6.292;2023-02-04T07:03:11;12.30;60.20
44537;DHT22;30245;51.966;6.292;2023-02-04T07:05:37;12.30;60.20
44537;DHT22;30245;51.966;6.292;2023-02-04T07:08:03;12.30;60.20
44537;DHT22;30245;51.966;6.292;2023-02-04T07:10:28;12.40;60.20
44537;DHT22;30245;51.966;6.292;2023-02-04T07:12:54;12.40;60.10
44537;DHT22;30245;51.966;6.292;2023-02-04T07:15:19;12.40;60.30
44537;DHT22;30245;51.966;6.292;2023-02-04T07:17:45;12.40;60.20
44537;DHT22;30245;51.966;6.292;2023-02-04T07:20:11;12.40;60.30
44537;DHT22;30245;51.966;6.292;2023-02-04T07:22:37;12.40;60.20
44537;DHT22;30245;51.966;6.292;2023-02-04T07:25:03;12.40;60.20
44537;DHT22;30245;51.966;6.292;2023-02-04T07:27:28;12.40;60.30
44537;DHT22;30245;51.966;6.292;2023-02-04T07:29:54;12.40;60.30
44537;DHT22;30245;51.966;6.292;2023-02-04T07:32:19;12.40;60.30
44537;DHT22;30245;51.966;6.292;2023-02-04T07:34:45;12.40;60.30
44537;DHT22;30245;51.966;6.292;2023-02-04T07:37:12;12.40;60.30
44537;DHT22;30245;51.966;6.292;2023-02-04T07:39:37;12.40;60.30
44537;DHT22;30245;51.966;6.292;2023-02-04T07:42:03;12.40;60.30
44537;DHT22;30245;51.966;6.292;2023-02-04T07:44:29;12.40;60.20
44537;DHT22;30245;51.966;6.292;2023-02-04T07:46:54;12.50;60.20
44537;DHT22;30245;51.966;6.292;2023-02-04T07:49:21;12.50;60.10
44537;DHT22;30245;51.966;6.292;2023-02-04T07:51:46;12.50;60.00
44537;DHT22;30245;51.966;6.292;2023-02-04T07:54:12;12.60;59.80
44537;DHT22;30245;51.966;6.292;2023-02-04T07:56:37;12.70;59.80
44537;DHT22;30245;51.966;6.292;2023-02-04T07:59:03;12.70;59.70
44537;DHT22;30245;51.966;6.292;2023-02-04T08:01:29;12.70;59.70
44537;DHT22;30245;51.966;6.292;2023-02-04T08:03:54;12.70;59.70
44537;DHT22;30245;51.966;6.292;2023-02-04T08:06:20;12.70;59.70
44537;DHT22;30245;51.966;6.292;2023-02-04T08:08:45;12.70;59.80
44537;DHT22;30245;51.966;6.292;2023-02-04T08:11:11;12.70;59.80
44537;DHT22;30245;51.966;6.292;2023-02-04T08:13:36;12.70;59.80
44537;DHT22;30245;51.966;6.292;2023-02-04T08:16:02;12.80;59.80
44537;DHT22;30245;51.966;6.292;2023-02-04T08:18:28;12.80;59.70
44537;DHT22;30245;51.966;6.292;2023-02-04T08:20:53;12.80;59.70
44537;DHT22;30245;51.966;6.292;2023-02-04T08:23:19;12.80;59.80
44537;DHT22;30245;51.966;6.292;2023-02-04T08:25:44;12.80;60.40
44537;DHT22;30245;51.966;6.292;2023-02-04T08:28:10;12.90;59.90
44537;DHT22;30245;51.966;6.292;2023-02-04T08:30:36;12.90;59.90
44537;DHT22;30245;51.966;6.292;2023-02-04T08:33:01;12.90;59.90
44537;DHT22;30245;51.966;6.292;2023-02-04T08:35:27;12.90;59.80
44537;DHT22;30245;51.966;6.292;2023-02-04T08:37:52;13.00;59.90
44537;DHT22;30245;51.966;6.292;2023-02-04T08:40:18;13.00;59.80
44537;DHT22;30245;51.966;6.292;2023-02-04T08:42:44;13.00;59.80
44537;DHT22;30245;51.966;6.292;2023-02-04T08:45:09;13.00;59.60
44537;DHT22;30245;51.966;6.292;2023-02-04T08:47:35;13.10;59.70
44537;DHT22;30245;51.966;6.292;2023-02-04T08:50:00;13.10;59.70
44537;DHT22;30245;51.966;6.292;2023-02-04T08:52:26;13.10;59.70
44537;DHT22;30245;51.966;6.292;2023-02-04T08:54:51;13.10;59.70
44537;DHT22;30245;51.966;6.292;2023-02-04T08:57:17;13.20;59.80
44537;DHT22;30245;51.966;6.292;2023-02-04T08:59:43;13.20;59.70
44537;DHT22;30245;51.966;6.292;2023-02-04T09:02:10;13.30;59.60
44537;DHT22;30245;51.966;6.292;2023-02-04T09:04:35;13.40;59.60
44537;DHT22;30245;51.966;6.292;2023-02-04T09:07:01;13.50;59.40
44537;DHT22;30245;51.966;6.292;2023-02-04T09:09:26;13.70;59.30
44537;DHT22;30245;51.966;6.292;2023-02-04T09:11:52;13.80;59.10
44537;DHT22;30245;51.966;6.292;2023-02-04T09:14:17;13.90;58.80
44537;DHT22;30245;51.966;6.292;2023-02-04T09:16:43;13.90;58.70
44537;DHT22;30245;51.966;6.292;2023-02-04T09:19:08;14.00;58.70
44537;DHT22;30245;51.966;6.292;2023-02-04T09:21:37;14.00;58.80
44537;DHT22;30245;51.966;6.292;2023-02-04T09:24:02;14.00;58.80
44537;DHT22;30245;51.966;6.292;2023-02-04T09:26:28;14.10;58.60
44537;DHT22;30245;51.966;6.292;2023-02-04T09:28:54;14.20;58.60
44537;DHT22;30245;51.966;6.292;2023-02-04T09:31:19;14.30;58.50
44537;DHT22;30245;51.966;6.292;2023-02-04T09:33:45;14.30;58.40
44537;DHT22;30245;51.966;6.292;2023-02-04T09:36:10;14.30;58.40
44537;DHT22;30245;51.966;6.292;2023-02-04T09:38:36;14.40;58.50
44537;DHT22;30245;51.966;6.292;2023-02-04T09:41:06;14.50;58.50
44537;DHT22;30245;51.966;6.292;2023-02-04T09:43:40;14.50;58.50
44537;DHT22;30245;51.966;6.292;2023-02-04T09:46:13;14.60;58.40
44537;DHT22;30245;51.966;6.292;2023-02-04T09:48:40;14.70;58.20
44537;DHT22;30245;51.966;6.292;2023-02-04T09:51:06;14.80;58.10
44537;DHT22;30245;51.966;6.292;2023-02-04T09:53:33;14.90;58.10
44537;DHT22;30245;51.966;6.292;2023-02-04T09:56:00;15.00;58.00
44537;DHT22;30245;51.966;6.292;2023-02-04T09:58:32;15.20;58.00
44537;DHT22;30245;51.966;6.292;2023-02-04T10:01:04;15.40;57.80
44537;DHT22;30245;51.966;6.292;2023-02-04T10:03:30;15.70;57.40
44537;DHT22;30245;51.966;6.292;2023-02-04T10:05:56;16.00;57.10
44537;DHT22;30245;51.966;6.292;2023-02-04T10:08:27;16.20;56.90
44537;DHT22;30245;51.966;6.292;2023-02-04T10:10:54;16.40;56.50
44537;DHT22;30245;51.966;6.292;2023-02-04T10:13:25;16.60;56.30
44537;DHT22;30245;51.966;6.292;2023-02-04T10:15:54;16.60;56.20
44537;DHT22;30245;51.966;6.292;2023-02-04T10:18:31;16.70;56.10
44537;DHT22;30245;51.966;6.292;2023-02-04T10:21:25;16.80;56.00
44537;DHT22;30245;51.966;6.292;2023-02-04T10:23:55;16.80;55.80
44537;DHT22;30245;51.966;6.292;2023-02-04T10:26:30;16.90;55.60
44537;DHT22;30245;51.966;6.292;2023-02-04T10:29:02;16.80;55.60
44537;DHT22;30245;51.966;6.292;2023-02-04T10:34:15;16.70;55.60
44537;DHT22;30245;51.966;6.292;2023-02-04T10:36:43;16.60;55.60
44537;DHT22;30245;51.966;6.292;2023-02-04T10:41:36;16.50;55.80
44537;DHT22;30245;51.966;6.292;2023-02-04T10:44:09;16.40;56.00
44537;DHT22;30245;51.966;6.292;2023-02-04T10:46:35;16.30;56.10
44537;DHT22;30245;51.966;6.292;2023-02-04T10:49:13;16.30;56.20
44537;DHT22;30245;51.966;6.292;2023-02-04T10:51:41;16.20;56.20
44537;DHT22;30245;51.966;6.292;2023-02-04T10:54:10;16.00;56.50
44537;DHT22;30245;51.966;6.292;2023-02-04T10:59:41;15.90;56.90
44537;DHT22;30245;51.966;6.292;2023-02-04T11:04:59;16.10;56.40
44537;DHT22;30245;51.966;6.292;2023-02-04T11:07:25;16.20;56.10
44537;DHT22;30245;51.966;6.292;2023-02-04T11:09:51;16.20;56.00
44537;DHT22;30245;51.966;6.292;2023-02-04T11:16:09;16.20;55.80
44537;DHT22;30245;51.966;6.292;2023-02-04T11:19:02;16.20;55.70
44537;DHT22;30245;51.966;6.292;2023-02-04T11:26:45;16.30;55.60
44537;DHT22;30245;51.966;6.292;2023-02-04T11:32:01;16.50;55.50
44537;DHT22;30245;51.966;6.292;2023-02-04T11:34:30;16.50;55.30
44537;DHT22;30245;51.966;6.292;2023-02-04T11:39:54;16.50;55.30
44537;DHT22;30245;51.966;6.292;2023-02-04T11:47:26;16.70;55.20
44537;DHT22;30245;51.966;6.292;2023-02-04T11:49:58;16.70;55.00
44537;DHT22;30245;51.966;6.292;2023-02-04T11:52:26;16.80;54.80
44537;DHT22;30245;51.966;6.292;2023-02-04T11:54:53;16.90;54.60
44537;DHT22;30245;51.966;6.292;2023-02-04T11:57:18;17.00;55.00
44537;DHT22;30245;51.966;6.292;2023-02-04T11:59:44;17.10;54.20
44537;DHT22;30245;51.966;6.292;2023-02-04T12:02:46;17.10;54.00
44537;DHT22;30245;51.966;6.292;2023-02-04T12:05:17;17.20;53.90
44537;DHT22;30245;51.966;6.292;2023-02-04T12:07:44;17.10;54.00
44537;DHT22;30245;51.966;6.292;2023-02-04T12:10:23;17.10;54.00
44537;DHT22;30245;51.966;6.292;2023-02-04T12:12:52;17.00;54.00
44537;DHT22;30245;51.966;6.292;2023-02-04T12:15:23;16.90;54.00
44537;DHT22;30245;51.966;6.292;2023-02-04T12:18:08;16.80;54.10
44537;DHT22;30245;51.966;6.292;2023-02-04T12:20:36;16.80;54.10
44537;DHT22;30245;51.966;6.292;2023-02-04T12:23:02;16.80;54.20
44537;DHT22;30245;51.966;6.292;2023-02-04T12:25:28;16.70;54.20
44537;DHT22;30245;51.966;6.292;2023-02-04T12:27:54;16.80;54.20
44537;DHT22;30245;51.966;6.292;2023-02-04T12:30:20;16.80;54.00
44537;DHT22;30245;51.966;6.292;2023-02-04T12:32:46;16.80;54.10
44537;DHT22;30245;51.966;6.292;2023-02-04T12:35:13;16.90;54.00
44537;DHT22;30245;51.966;6.292;2023-02-04T12:37:38;16.90;53.80
44537;DHT22;30245;51.966;6.292;2023-02-04T12:40:04;16.90;53.70
44537;DHT22;30245;51.966;6.292;2023-02-04T12:42:30;17.00;53.70
44537;DHT22;30245;51.966;6.292;2023-02-04T12:44:55;17.00;53.60
44537;DHT22;30245;51.966;6.292;2023-02-04T12:47:21;17.10;53.40
44537;DHT22;30245;51.966;6.292;2023-02-04T12:49:46;17.10;53.20
44537;DHT22;30245;51.966;6.292;2023-02-04T12:52:12;17.20;53.10
44537;DHT22;30245;51.966;6.292;2023-02-04T12:54:38;17.40;53.10
44537;DHT22;30245;51.966;6.292;2023-02-04T12:57:04;17.50;52.90
44537;DHT22;30245;51.966;6.292;2023-02-04T12:59:29;17.60;52.60
44537;DHT22;30245;51.966;6.292;2023-02-04T13:01:56;17.50;52.50
44537;DHT22;30245;51.966;6.292;2023-02-04T13:04:22;17.70;52.30
44537;DHT22;30245;51.966;6.292;2023-02-04T13:06:47;17.80;52.00
44537;DHT22;30245;51.966;6.292;2023-02-04T13:09:13;18.00;51.50
44537;DHT22;30245;51.966;6.292;2023-02-04T13:11:39;18.00;51.20
44537;DHT22;30245;51.966;6.292;2023-02-04T13:14:04;18.10;51.10
44537;DHT22;30245;51.966;6.292;2023-02-04T13:16:30;18.30;51.10
44537;DHT22;30245;51.966;6.292;2023-02-04T13:18:55;18.30;50.70
44537;DHT22;30245;51.966;6.292;2023-02-04T13:21:21;18.50;50.50
44537;DHT22;30245;51.966;6.292;2023-02-04T13:23:47;18.50;50.20
44537;DHT22;30245;51.966;6.292;2023-02-04T13:26:12;18.50;49.90
44537;DHT22;30245;51.966;6.292;2023-02-04T13:28:38;18.50;49.90
44537;DHT22;30245;51.966;6.292;2023-02-04T13:31:03;18.50;49.90
44537;DHT22;30245;51.966;6.292;2023-02-04T13:33:29;18.60;49.60
44537;DHT22;30245;51.966;6.292;2023-02-04T13:35:55;18.60;49.40
44537;DHT22;30245;51.966;6.292;2023-02-04T13:38:21;18.60;49.30
44537;DHT22;30245;51.966;6.292;2023-02-04T13:40:47;18.50;49.30
44537;DHT22;30245;51.966;6.292;2023-02-04T13:43:13;18.50;49.30
44537;DHT22;30245;51.966;6.292;2023-02-04T13:45:38;18.30;49.20
44537;DHT22;30245;51.966;6.292;2023-02-04T13:48:05;18.30;49.40
44537;DHT22;30245;51.966;6.292;2023-02-04T13:50:30;18.40;49.40
44537;DHT22;30245;51.966;6.292;2023-02-04T13:52:56;18.70;49.00
44537;DHT22;30245;51.966;6.292;2023-02-04T13:55:21;19.20;48.80
44537;DHT22;30245;51.966;6.292;2023-02-04T13:57:47;19.80;48.10
44537;DHT22;30245;51.966;6.292;2023-02-04T14:00:13;20.20;47.40
44537;DHT22;30245;51.966;6.292;2023-02-04T14:02:39;20.40;46.80
44537;DHT22;30245;51.966;6.292;2023-02-04T14:05:05;20.40;46.20
44537;DHT22;30245;51.966;6.292;2023-02-04T14:07:30;20.20;46.00
44537;DHT22;30245;51.966;6.292;2023-02-04T14:09:57;20.00;46.20
44537;DHT22;30245;51.966;6.292;2023-02-04T14:12:23;20.00;46.50
44537;DHT22;30245;51.966;6.292;2023-02-04T14:14:49;20.10;46.60
44537;DHT22;30245;51.966;6.292;2023-02-04T14:17:14;20.40;46.20
44537;DHT22;30245;51.966;6.292;2023-02-04T14:19:40;20.40;45.70
44537;DHT22;30245;51.966;6.292;2023-02-04T14:22:06;20.50;45.50
44537;DHT22;30245;51.966;6.292;2023-02-04T14:24:32;20.60;45.20
44537;DHT22;30245;51.966;6.292;2023-02-04T14:26:57;20.70;45.00
44537;DHT22;30245;51.966;6.292;2023-02-04T14:29:23;20.90;44.80
44537;DHT22;30245;51.966;6.292;2023-02-04T14:31:49;21.10;44.40
44537;DHT22;30245;51.966;6.292;2023-02-04T14:34:14;21.30;43.90
44537;DHT22;30245;51.966;6.292;2023-02-04T14:36:40;21.50;43.60
44537;DHT22;30245;51.966;6.292;2023-02-04T14:39:05;21.70;43.20
44537;DHT22;30245;51.966;6.292;2023-02-04T14:41:31;21.90;43.00
44537;DHT22;30245;51.966;6.292;2023-02-04T14:43:57;22.00;42.50
44537;DHT22;30245;51.966;6.292;2023-02-04T14:46:22;22.20;42.30
44537;DHT22;30245;51.966;6.292;2023-02-04T14:48:48;22.30;41.90
44537;DHT22;30245;51.966;6.292;2023-02-04T14:51:16;22.30;41.50
44537;DHT22;30245;51.966;6.292;2023-02-04T14:53:42;22.40;41.40
44537;DHT22;30245;51.966;6.292;2023-02-04T14:56:07;22.50;41.30
44537;DHT22;30245;51.966;6.292;2023-02-04T14:58:33;22.50;40.90
44537;DHT22;30245;51.966;6.292;2023-02-04T15:00:59;22.50;40.90
44537;DHT22;30245;51.966;6.292;2023-02-04T15:03:24;22.50;40.60
44537;DHT22;30245;51.966;6.292;2023-02-04T15:05:50;22.50;40.50
44537;DHT22;30245;51.966;6.292;2023-02-04T15:08:15;22.50;40.60
44537;DHT22;30245;51.966;6.292;2023-02-04T15:10:41;22.40;40.20
44537;DHT22;30245;51.966;6.292;2023-02-04T15:13:07;22.20;40.20
44537;DHT22;30245;51.966;6.292;2023-02-04T15:15:33;21.90;40.80
44537;DHT22;30245;51.966;6.292;2023-02-04T15:17:58;21.70;40.70
44537;DHT22;30245;51.966;6.292;2023-02-04T15:20:24;21.40;40.70
44537;DHT22;30245;51.966;6.292;2023-02-04T15:22:49;21.20;41.00
44537;DHT22;30245;51.966;6.292;2023-02-04T15:25:17;21.10;41.10
44537;DHT22;30245;51.966;6.292;2023-02-04T15:27:42;20.90;41.90
44537;DHT22;30245;51.966;6.292;2023-02-04T15:30:08;20.60;41.40
44537;DHT22;30245;51.966;6.292;2023-02-04T15:32:34;20.40;41.60
44537;DHT22;30245;51.966;6.292;2023-02-04T15:34:59;20.10;41.70
44537;DHT22;30245;51.966;6.292;2023-02-04T15:37:25;19.90;42.00
44537;DHT22;30245;51.966;6.292;2023-02-04T15:39:50;19.70;42.20
44537;DHT22;30245;51.966;6.292;2023-02-04T15:42:16;19.60;42.30
44537;DHT22;30245;51.966;6.292;2023-02-04T15:44:41;19.40;42.40
44537;DHT22;30245;51.966;6.292;2023-02-04T15:47:07;19.20;42.60
44537;DHT22;30245;51.966;6.292;2023-02-04T15:49:33;19.00;42.90
44537;DHT22;30245;51.966;6.292;2023-02-04T15:51:59;18.80;43.00
44537;DHT22;30245;51.966;6.292;2023-02-04T15:54:26;18.60;43.30
44537;DHT22;30245;51.966;6.292;2023-02-04T15:56:52;18.40;43.50
44537;DHT22;30245;51.966;6.292;2023-02-04T15:59:17;18.30;43.70